Time;durP1;ratioP1;P1;durP2;ratioP2;P2;SDS_P1;SDS_P2;PMS_P1;PMS_P2;Temp;Humidity;BMP_temperature;BMP_pressure;BME280_temperature;BME280_humidity;BME280_pressure;Samples;Min_cycle;Max_cycle;Signal;HPM_P1;HPM_P2
2023/07/26 00:01:41;;;;;;;10.75;5.53;;;;;;;15.97;73.36;100457.53;4992209;28;20097;-45
2023/07/26 00:04:08;;;;;;;8.23;4.88;;;;;;;15.94;73.27;100464.69;4990874;28;20046;-46
2023/07/26 00:06:35;;;;;;;10.48;5.82;;;;;;;15.93;73.64;100471.47;4991985;28;20054;-45
2023/07/26 00:09:03;;;;;;;10.52;5.40;;;;;;;15.93;73.80;100467.88;4992094;28;20057;-46
2023/07/26 00:11:29;;;;;;;11.18;6.63;;;;;;;15.92;73.98;100453.13;4990974;28;20488;-46
2023/07/26 00:13:56;;;;;;;8.77;4.95;;;;;;;15.90;74.01;100452.72;4991852;28;20046;-47
2023/07/26 00:16:23;;;;;;;10.82;4.65;;;;;;;15.88;74.13;100455.09;4991981;28;20044;-45
2023/07/26 00:18:50;;;;;;;17.55;6.35;;;;;;;15.86;74.46;100459.47;4990560;28;20939;-46
2023/07/26 00:21:17;;;;;;;13.57;4.88;;;;;;;15.81;74.39;100452.22;4974655;28;20400;-45
2023/07/26 00:23:44;;;;;;;8.68;5.13;;;;;;;15.78;74.60;100439.03;4991478;28;20038;-45
2023/07/26 00:26:10;;;;;;;9.50;5.32;;;;;;;15.74;74.73;100446.59;4990313;28;20074;-46
2023/07/26 00:28:37;;;;;;;8.63;5.38;;;;;;;15.70;74.97;100448.59;4990358;28;20077;-46
2023/07/26 00:31:05;;;;;;;10.07;5.13;;;;;;;15.66;75.15;100442.16;4974671;28;20038;-46
2023/07/26 00:33:32;;;;;;;9.68;4.90;;;;;;;15.63;75.49;100437.34;4990912;28;20393;-50
2023/07/26 00:35:59;;;;;;;8.07;4.80;;;;;;;15.63;75.53;100442.94;4993405;28;20073;-45
2023/07/26 00:38:26;;;;;;;9.02;4.60;;;;;;;15.59;75.60;100454.09;4986625;28;20497;-45
2023/07/26 00:40:53;;;;;;;6.57;4.45;;;;;;;15.56;75.72;100454.03;4989659;28;20054;-49
2023/07/26 00:43:20;;;;;;;11.30;5.40;;;;;;;15.54;75.74;100451.63;4991491;28;20511;-46
2023/07/26 00:45:47;;;;;;;8.60;4.78;;;;;;;15.51;76.09;100451.59;4992589;28;20042;-46
2023/07/26 00:48:15;;;;;;;8.82;4.80;;;;;;;15.50;76.24;100455.56;4997566;28;20054;-46
2023/07/26 00:50:45;;;;;;;10.48;5.22;;;;;;;15.47;76.36;100456.34;4991559;28;20046;-45
2023/07/26 00:53:13;;;;;;;7.60;4.78;;;;;;;15.46;76.42;100449.94;4991790;28;20104;-47
2023/07/26 00:55:42;;;;;;;8.93;4.95;;;;;;;15.44;76.63;100445.91;4990617;28;20552;-46
2023/07/26 00:58:11;;;;;;;9.40;4.63;;;;;;;15.41;76.81;100446.72;4991378;28;20045;-46
2023/07/26 01:00:44;;;;;;;9.68;4.10;;;;;;;15.37;76.80;100443.88;4991495;28;20046;-46
2023/07/26 01:03:11;;;;;;;11.45;5.43;;;;;;;15.35;76.90;100445.44;4990175;28;20133;-45
2023/07/26 01:05:49;;;;;;;6.00;4.30;;;;;;;15.33;77.15;100439.47;4991481;28;20078;-48
2023/07/26 01:08:34;;;;;;;10.95;3.95;;;;;;;15.28;77.15;100432.22;4991117;28;20046;-47
2023/07/26 01:11:16;;;;;;;10.23;4.35;;;;;;;15.25;77.21;100421.84;4991465;28;20046;-45
2023/07/26 01:13:50;;;;;;;6.68;4.22;;;;;;;15.22;77.23;100420.63;4991151;28;20480;-46
2023/07/26 01:16:17;;;;;;;10.18;4.30;;;;;;;15.21;77.28;100416.25;4991438;28;20042;-46
2023/07/26 01:18:43;;;;;;;7.88;3.92;;;;;;;15.20;77.31;100409.06;4991078;28;20038;-45
2023/07/26 01:21:10;;;;;;;8.00;4.05;;;;;;;15.21;77.40;100412.66;4991168;28;20073;-46
2023/07/26 01:23:38;;;;;;;8.10;3.83;;;;;;;15.19;77.53;100413.03;4990146;28;20050;-45
2023/07/26 01:26:05;;;;;;;10.65;4.57;;;;;;;15.16;77.82;100408.22;4991137;28;20050;-45
2023/07/26 01:28:32;;;;;;;8.73;4.63;;;;;;;15.17;77.80;100414.59;4991365;28;20059;-45
2023/07/26 01:31:01;;;;;;;9.20;4.68;;;;;;;15.13;78.02;100410.97;4991184;28;20047;-45
2023/07/26 01:33:31;;;;;;;8.43;4.47;;;;;;;15.12;78.58;100403.78;4991275;28;20030;-46
2023/07/26 01:35:59;;;;;;;9.52;4.90;;;;;;;15.12;78.38;100410.16;4990216;28;20038;-45
2023/07/26 01:38:29;;;;;;;7.15;4.35;;;;;;;15.11;78.45;100411.38;4986669;28;20046;-45
2023/07/26 01:40:57;;;;;;;12.48;4.80;;;;;;;15.07;78.34;100402.16;4980906;28;20050;-45
2023/07/26 01:43:24;;;;;;;6.93;3.90;;;;;;;15.07;78.67;100396.56;4996383;28;20069;-46
2023/07/26 01:45:51;;;;;;;9.70;4.65;;;;;;;15.07;78.57;100392.97;4974807;28;20061;-46
2023/07/26 01:48:18;;;;;;;12.52;4.80;;;;;;;15.07;78.81;100399.38;4994398;28;20101;-46
2023/07/26 01:50:45;;;;;;;9.13;4.40;;;;;;;15.04;78.79;100397.34;4994630;28;20062;-46
2023/07/26 01:53:11;;;;;;;11.88;4.68;;;;;;;15.02;78.78;100396.13;4992393;28;20058;-45
2023/07/26 01:55:38;;;;;;;8.27;4.32;;;;;;;15.00;78.80;100399.31;4994849;28;20053;-46
2023/07/26 01:58:05;;;;;;;7.60;5.25;;;;;;;14.95;79.00;100398.84;4994068;28;20104;-45
2023/07/26 02:00:32;;;;;;;10.18;4.35;;;;;;;14.92;79.33;100392.06;4994360;28;20042;-46
2023/07/26 02:02:59;;;;;;;6.80;3.92;;;;;;;14.89;79.36;100394.81;4994048;28;20125;-45
2023/07/26 02:05:25;;;;;;;8.57;4.60;;;;;;;14.87;79.51;100386.84;4994499;28;20054;-47
2023/07/26 02:07:52;;;;;;;8.80;4.43;;;;;;;14.85;79.56;100386.38;4993802;28;20046;-46
2023/07/26 02:10:19;;;;;;;11.05;4.88;;;;;;;14.81;79.86;100385.56;4991803;28;20038;-45
2023/07/26 02:12:46;;;;;;;11.20;5.63;;;;;;;14.76;80.01;100380.34;4993865;28;20050;-46
2023/07/26 02:15:13;;;;;;;8.80;5.20;;;;;;;14.73;80.09;100378.31;4994187;28;20042;-46
2023/07/26 02:17:41;;;;;;;9.10;5.07;;;;;;;14.69;80.24;100385.84;4994300;28;20073;-46
2023/07/26 02:20:08;;;;;;;6.65;4.30;;;;;;;14.68;80.53;100386.22;4994009;28;20046;-46
2023/07/26 02:22:35;;;;;;;7.68;4.80;;;;;;;14.66;80.58;100383.00;4993297;28;20046;-46
2023/07/26 02:25:03;;;;;;;9.10;4.60;;;;;;;14.63;80.49;100379.81;4990903;28;20109;-47
2023/07/26 02:27:29;;;;;;;11.27;5.60;;;;;;;14.62;80.65;100380.19;4992077;28;20042;-45
2023/07/26 02:29:56;;;;;;;9.85;5.10;;;;;;;14.58;80.82;100387.72;4991417;28;20043;-45
2023/07/26 02:32:23;;;;;;;7.50;5.07;;;;;;;14.55;80.82;100382.88;4992293;28;20081;-48
2023/07/26 02:34:50;;;;;;;8.77;4.43;;;;;;;14.53;81.03;100380.47;4995117;28;20100;-48
2023/07/26 02:37:16;;;;;;;10.63;4.60;;;;;;;14.47;81.16;100375.63;4991864;28;20042;-47
2023/07/26 02:39:43;;;;;;;9.15;5.07;;;;;;;14.47;81.39;100375.63;4989657;28;20046;-46
2023/07/26 02:42:10;;;;;;;6.93;4.43;;;;;;;14.42;81.49;100368.44;4994400;28;20074;-47
2023/07/26 02:44:37;;;;;;;7.68;3.92;;;;;;;14.42;81.38;100384.34;4989574;28;20136;-45
2023/07/26 02:47:04;;;;;;;8.82;4.38;;;;;;;14.42;81.47;100368.44;4992024;28;20069;-46
2023/07/26 02:49:31;;;;;;;12.75;4.32;;;;;;;14.47;81.22;100365.31;4992401;28;20513;-46
2023/07/26 02:51:58;;;;;;;8.95;3.45;;;;;;;14.48;81.24;100366.88;4996318;28;20046;-45
2023/07/26 02:54:25;;;;;;;6.90;3.85;;;;;;;14.45;81.10;100358.50;4992643;28;20053;-46
2023/07/26 02:56:52;;;;;;;9.13;4.10;;;;;;;14.43;81.33;100355.28;4991796;28;20096;-46
2023/07/26 02:59:19;;;;;;;8.40;4.53;;;;;;;14.41;81.44;100343.72;4991771;28;20418;-51
2023/07/26 03:01:45;;;;;;;11.27;4.10;;;;;;;14.43;81.48;100355.28;5031825;23;20133;-47
2023/07/26 03:04:12;;;;;;;6.82;4.40;;;;;;;14.42;81.67;100348.13;4991208;28;20034;-48
2023/07/26 03:06:42;;;;;;;12.80;3.65;;;;;;;14.41;81.68;100349.28;4976405;28;20400;-46
2023/07/26 03:09:09;;;;;;;9.25;3.65;;;;;;;14.40;81.58;100351.28;4977042;28;20406;-46
2023/07/26 03:11:36;;;;;;;9.40;5.10;;;;;;;14.39;81.69;100340.53;4991388;28;20054;-46
2023/07/26 03:14:04;;;;;;;4.68;2.83;;;;;;;14.39;81.60;100332.16;4989447;28;20066;-45
2023/07/26 03:16:31;;;;;;;8.40;3.05;;;;;;;14.38;81.70;100334.16;4986864;28;20054;-45
2023/07/26 03:18:58;;;;;;;5.88;3.40;;;;;;;14.35;81.79;100329.34;4983174;28;20125;-45
2023/07/26 03:21:25;;;;;;;6.38;3.20;;;;;;;14.33;81.83;100330.91;4992133;28;20053;-45
2023/07/26 03:23:52;;;;;;;8.85;3.47;;;;;;;14.31;81.95;100327.66;4991969;28;20050;-47
2023/07/26 03:26:20;;;;;;;5.30;2.70;;;;;;;14.29;81.87;100325.28;4982517;28;20074;-45
2023/07/26 03:28:46;;;;;;;7.40;3.40;;;;;;;14.30;81.88;100320.47;4988684;28;20101;-45
2023/07/26 03:31:13;;;;;;;5.45;2.95;;;;;;;14.31;81.92;100319.31;4990671;28;20869;-45
2023/07/26 03:33:40;;;;;;;7.43;3.58;;;;;;;14.30;81.80;100320.47;4979876;28;20591;-45
2023/07/26 03:36:07;;;;;;;7.95;4.10;;;;;;;14.27;81.74;100310.13;4988287;28;20483;-45
2023/07/26 03:38:34;;;;;;;6.85;3.63;;;;;;;14.24;81.78;100308.09;4981117;28;20854;-45
2023/07/26 03:41:01;;;;;;;7.88;3.88;;;;;;;14.21;81.93;100311.66;4991105;28;20043;-45
2023/07/26 03:43:28;;;;;;;7.03;3.45;;;;;;;14.17;82.07;100314.38;4989500;28;20054;-45
2023/07/26 03:45:55;;;;;;;6.78;4.18;;;;;;;14.16;82.06;100317.56;4989609;28;20047;-45
2023/07/26 03:48:21;;;;;;;4.68;2.70;;;;;;;14.11;82.46;100317.91;4990410;28;20395;-45
2023/07/26 03:50:48;;;;;;;4.90;2.88;;;;;;;14.07;82.57;100323.41;4991791;28;20054;-46
2023/07/26 03:53:15;;;;;;;6.65;4.05;;;;;;;14.05;82.61;100323.00;4990698;28;20046;-44
2023/07/26 03:55:42;;;;;;;5.55;2.83;;;;;;;14.00;82.83;100324.09;4991592;28;20070;-46
2023/07/26 03:58:09;;;;;;;6.97;2.88;;;;;;;13.98;82.72;100318.13;4989449;28;20045;-45
2023/07/26 04:00:36;;;;;;;13.07;3.60;;;;;;;13.95;82.85;100316.09;4990863;28;20432;-48
2023/07/26 04:03:03;;;;;;;6.80;3.25;;;;;;;13.88;83.00;100318.78;4986711;28;20324;-46
2023/07/26 04:05:32;;;;;;;7.70;4.07;;;;;;;13.84;83.03;100315.19;4986788;28;20559;-46
2023/07/26 04:07:59;;;;;;;8.05;3.20;;;;;;;13.79;83.29;100311.91;4990933;28;20449;-47
2023/07/26 04:10:26;;;;;;;6.72;3.15;;;;;;;13.78;83.48;100311.13;4990000;28;20471;-45
2023/07/26 04:12:53;;;;;;;7.53;3.63;;;;;;;13.75;83.35;100314.66;4987714;28;20050;-46
2023/07/26 04:15:20;;;;;;;9.35;3.30;;;;;;;13.71;83.78;100308.25;4984781;28;20042;-46
2023/07/26 04:17:47;;;;;;;6.28;3.08;;;;;;;13.68;83.64;100309.00;5000337;28;20097;-46
2023/07/26 04:20:14;;;;;;;8.00;3.15;;;;;;;13.68;83.79;100310.97;4991952;28;20057;-46
2023/07/26 04:22:41;;;;;;;8.32;3.50;;;;;;;13.64;83.83;100293.41;4990345;28;20527;-49
2023/07/26 04:25:08;;;;;;;7.00;3.08;;;;;;;13.62;83.83;100290.22;4988991;28;20054;-46
2023/07/26 04:27:35;;;;;;;4.90;2.90;;;;;;;13.59;84.31;100286.19;4985000;28;20090;-45
2023/07/26 04:30:02;;;;;;;8.90;3.60;;;;;;;13.57;84.24;100282.19;4981429;28;20109;-45
2023/07/26 04:32:29;;;;;;;8.57;3.67;;;;;;;13.54;84.17;100280.97;4989362;28;20054;-47
2023/07/26 04:34:56;;;;;;;4.60;3.20;;;;;;;13.53;84.26;100279.34;4983137;28;20054;-45
2023/07/26 04:37:23;;;;;;;8.57;3.55;;;;;;;13.52;84.36;100263.88;4987684;28;20038;-46
2023/07/26 04:39:50;;;;;;;8.07;3.03;;;;;;;13.50;84.36;100270.97;4988270;28;20476;-47
2023/07/26 04:42:19;;;;;;;6.30;3.03;;;;;;;13.48;84.77;100273.31;4988301;28;20082;-45
2023/07/26 04:44:46;;;;;;;4.47;2.78;;;;;;;13.47;84.74;100264.19;4990476;28;20061;-46
2023/07/26 04:47:15;;;;;;;7.00;3.72;;;;;;;13.49;84.84;100272.97;4987785;28;20469;-48
2023/07/26 04:49:42;;;;;;;7.47;2.97;;;;;;;13.47;84.63;100268.94;4979497;28;20047;-46
2023/07/26 04:52:09;;;;;;;7.10;3.65;;;;;;;13.46;84.87;100264.56;4987896;28;20106;-45
2023/07/26 04:54:36;;;;;;;7.32;3.10;;;;;;;13.43;84.93;100266.09;4987278;28;20050;-48
2023/07/26 04:57:03;;;;;;;5.75;3.30;;;;;;;13.43;85.01;100274.44;4988375;28;20049;-45
2023/07/26 04:59:30;;;;;;;5.43;3.08;;;;;;;13.43;84.94;100269.69;4983753;28;20038;-46
2023/07/26 05:01:56;;;;;;;8.32;3.55;;;;;;;13.43;85.10;100274.44;4980505;28;20080;-47
2023/07/26 05:04:23;;;;;;;12.23;3.97;;;;;;;13.47;84.91;100283.66;4991720;28;20078;-46
2023/07/26 05:06:50;;;;;;;9.18;3.88;;;;;;;13.46;84.84;100276.50;4991596;28;20046;-47
2023/07/26 05:09:17;;;;;;;5.68;3.25;;;;;;;13.46;85.16;100282.03;4991318;28;20114;-46
2023/07/26 05:11:44;;;;;;;5.72;3.78;;;;;;;13.47;85.15;100289.22;4991536;28;20042;-50
2023/07/26 05:14:11;;;;;;;6.97;3.80;;;;;;;13.48;85.29;100285.25;4991103;28;20046;-51
2023/07/26 05:16:39;;;;;;;9.93;4.10;;;;;;;13.50;85.30;100280.13;4983388;28;20054;-45
2023/07/26 05:19:06;;;;;;;9.15;3.88;;;;;;;13.51;85.43;100278.13;4986423;28;20468;-47
2023/07/26 05:21:33;;;;;;;5.65;3.80;;;;;;;13.55;85.29;100282.59;4993181;28;20042;-46
2023/07/26 05:24:00;;;;;;;6.22;3.05;;;;;;;13.57;85.61;100276.63;4991966;28;20046;-47
2023/07/26 05:26:27;;;;;;;11.10;3.67;;;;;;;13.62;85.33;100274.31;4989166;28;20050;-46
2023/07/26 05:28:54;;;;;;;7.03;3.63;;;;;;;13.64;85.38;100274.75;4989908;28;20399;-47
2023/07/26 05:31:20;;;;;;;8.25;3.47;;;;;;;13.69;85.56;100274.41;4992779;28;20507;-47
2023/07/26 05:33:47;;;;;;;6.18;2.83;;;;;;;13.74;85.89;100282.44;4983706;28;20472;-45
2023/07/26 05:36:14;;;;;;;6.35;3.53;;;;;;;13.83;85.85;100276.56;4983176;28;20041;-45
2023/07/26 05:38:41;;;;;;;12.25;3.55;;;;;;;13.91;86.04;100281.88;4991255;28;20047;-48
2023/07/26 05:41:08;;;;;;;6.57;3.25;;;;;;;14.00;86.04;100271.22;4993444;28;20117;-45
2023/07/26 05:43:34;;;;;;;5.95;3.40;;;;;;;14.06;85.70;100273.69;4994495;28;20050;-46
2023/07/26 05:46:02;;;;;;;7.55;3.83;;;;;;;14.09;85.78;100268.16;4993181;28;20050;-47
2023/07/26 05:48:30;;;;;;;6.93;2.97;;;;;;;14.15;85.91;100274.19;4994034;28;20530;-49
2023/07/26 05:50:57;;;;;;;8.15;3.20;;;;;;;14.22;86.11;100263.13;4993216;28;20046;-45
2023/07/26 05:53:24;;;;;;;7.93;3.28;;;;;;;14.31;86.04;100267.25;4990282;28;20046;-45
2023/07/26 05:55:51;;;;;;;10.38;3.22;;;;;;;14.35;86.12;100267.28;4994483;28;20061;-46
2023/07/26 05:58:18;;;;;;;7.20;3.92;;;;;;;14.39;86.00;100255.00;4994190;28;20077;-45
2023/07/26 06:00:44;;;;;;;6.93;3.47;;;;;;;14.46;86.34;100265.38;4993059;28;20054;-47
2023/07/26 06:03:11;;;;;;;6.72;3.30;;;;;;;14.53;86.15;100245.97;4994581;28;20035;-45
2023/07/26 06:05:40;;;;;;;6.82;2.65;;;;;;;14.59;86.19;100250.81;4994584;28;20519;-47
2023/07/26 06:08:07;;;;;;;6.38;3.05;;;;;;;14.65;86.23;100248.47;4985319;28;20125;-45
2023/07/26 06:10:34;;;;;;;8.13;3.63;;;;;;;14.70;86.33;100250.09;4989275;28;20054;-46
2023/07/26 06:13:01;;;;;;;8.30;3.47;;;;;;;14.76;86.22;100254.13;4984754;28;20052;-46
2023/07/26 06:15:27;;;;;;;9.48;3.90;;;;;;;14.82;86.18;100253.41;4994198;28;20039;-46
2023/07/26 06:17:54;;;;;;;7.47;3.45;;;;;;;14.88;86.29;100256.63;4981230;28;20487;-45
2023/07/26 06:20:21;;;;;;;5.13;2.90;;;;;;;14.95;86.21;100257.50;4994083;28;20484;-46
2023/07/26 06:22:48;;;;;;;8.20;3.35;;;;;;;15.05;86.19;100239.22;4989588;28;20535;-48
2023/07/26 06:25:15;;;;;;;4.78;3.10;;;;;;;15.15;85.89;100236.53;4981277;28;20050;-46
2023/07/26 06:27:42;;;;;;;4.68;2.97;;;;;;;15.24;85.79;100230.59;4991911;28;20559;-45
2023/07/26 06:30:09;;;;;;;3.63;2.70;;;;;;;15.36;85.72;100224.69;4989521;28;20053;-45
2023/07/26 06:32:36;;;;;;;8.10;4.13;;;;;;;15.47;85.49;100214.44;4992258;28;20452;-47
2023/07/26 06:35:03;;;;;;;6.50;3.60;;;;;;;15.58;85.24;100217.28;4985075;28;20137;-45
2023/07/26 06:37:30;;;;;;;5.25;3.00;;;;;;;15.64;85.01;100224.88;4990052;28;20052;-45
2023/07/26 06:39:56;;;;;;;5.72;3.22;;;;;;;15.71;85.08;100226.88;4986528;28;20073;-47
2023/07/26 06:42:23;;;;;;;9.60;3.88;;;;;;;15.76;84.87;100218.13;4977282;28;20102;-53
2023/07/26 06:44:50;;;;;;;5.97;3.03;;;;;;;15.76;84.88;100218.13;4986076;28;20053;-47
2023/07/26 06:47:17;;;;;;;9.90;3.10;;;;;;;15.75;84.59;100222.13;4991945;28;20053;-47
2023/07/26 06:49:44;;;;;;;5.38;2.80;;;;;;;15.75;84.58;100216.56;4993474;28;20057;-46
2023/07/26 06:52:11;;;;;;;4.32;2.15;;;;;;;15.74;84.41;100218.53;4993408;28;20053;-46
2023/07/26 06:54:38;;;;;;;9.45;3.67;;;;;;;15.78;84.48;100221.31;4992487;28;20399;-45
2023/07/26 06:57:05;;;;;;;8.75;2.80;;;;;;;15.83;84.24;100215.41;4992099;28;20052;-46
2023/07/26 06:59:32;;;;;;;9.93;3.70;;;;;;;15.92;84.17;100212.22;4980436;28;20101;-45
2023/07/26 07:01:58;;;;;;;4.10;2.78;;;;;;;16.01;84.28;100212.66;4992830;28;20050;-49
2023/07/26 07:04:26;;;;;;;8.43;2.95;;;;;;;16.12;83.80;100214.28;4992690;28;20053;-46
2023/07/26 07:06:53;;;;;;;8.23;4.25;;;;;;;16.23;83.74;100211.50;4991852;28;20057;-46
2023/07/26 07:09:20;;;;;;;4.45;2.67;;;;;;;16.36;83.44;100215.53;4993015;28;20053;-47
2023/07/26 07:11:46;;;;;;;5.18;2.70;;;;;;;16.49;83.15;100207.56;4993098;28;20116;-46
2023/07/26 07:14:13;;;;;;;4.80;2.70;;;;;;;16.63;83.04;100199.19;4991742;28;20050;-45
2023/07/26 07:16:40;;;;;;;5.35;2.67;;;;;;;16.73;82.93;100192.81;4984371;28;20444;-47
2023/07/26 07:19:07;;;;;;;4.72;2.63;;;;;;;16.81;82.79;100200.78;4986291;28;20522;-45
2023/07/26 07:21:34;;;;;;;12.63;3.70;;;;;;;16.92;82.54;100184.00;4980130;28;20065;-49
2023/07/26 07:24:02;;;;;;;3.35;2.25;;;;;;;17.00;82.28;100185.56;4991491;28;20795;-49
2023/07/26 07:26:29;;;;;;;5.60;2.63;;;;;;;17.03;81.82;100185.59;4985623;28;20055;-46
2023/07/26 07:28:56;;;;;;;7.38;2.45;;;;;;;17.09;81.70;100193.56;4980302;28;20039;-50
2023/07/26 07:31:23;;;;;;;5.60;2.70;;;;;;;17.05;80.92;100185.16;4991578;28;20038;-46
2023/07/26 07:33:50;;;;;;;8.90;3.72;;;;;;;16.99;80.62;100190.41;4983813;28;20046;-46
2023/07/26 07:36:19;;;;;;;7.20;3.80;;;;;;;16.96;80.59;100190.41;4990035;28;20054;-45
2023/07/26 07:38:46;;;;;;;14.30;4.47;;;;;;;16.98;80.43;100182.41;4990804;28;20089;-46
2023/07/26 07:41:14;;;;;;;7.82;3.47;;;;;;;16.96;80.20;100179.22;4973172;28;20074;-48
2023/07/26 07:43:41;;;;;;;4.72;3.08;;;;;;;16.96;80.02;100176.41;4988276;28;20053;-49
2023/07/26 07:46:08;;;;;;;3.08;2.22;;;;;;;16.93;79.94;100174.41;4988264;28;20605;-46
2023/07/26 07:48:36;;;;;;;4.45;1.65;;;;;;;16.89;79.87;100170.84;4984770;28;20129;-48
2023/07/26 07:51:04;;;;;;;3.80;1.98;;;;;;;16.86;79.42;100174.44;4985239;28;20149;-46
2023/07/26 07:53:32;;;;;;;5.07;1.88;;;;;;;16.81;79.93;100180.44;4977579;28;20060;-51
2023/07/26 07:55:59;;;;;;;6.20;2.13;;;;;;;16.79;79.94;100163.25;4989452;28;20129;-49
2023/07/26 07:58:26;;;;;;;4.50;2.22;;;;;;;16.74;79.90;100166.44;4989044;28;20480;-47
2023/07/26 08:00:58;;;;;;;5.63;2.53;;;;;;;16.67;80.24;100164.47;4984469;28;20046;-46
2023/07/26 08:03:25;;;;;;;4.28;2.30;;;;;;;16.62;80.47;100158.47;4986237;28;20038;-46
2023/07/26 08:05:54;;;;;;;6.20;2.47;;;;;;;16.57;80.67;100154.09;4987456;28;20042;-48
2023/07/26 08:08:21;;;;;;;2.75;2.38;;;;;;;16.53;81.04;100156.06;4990086;28;20045;-46
2023/07/26 08:10:48;;;;;;;7.30;2.67;;;;;;;16.50;81.34;100153.25;4987513;28;20045;-49
2023/07/26 08:13:15;;;;;;;4.60;2.80;;;;;;;16.49;81.64;100148.88;4978754;28;20038;-47
2023/07/26 08:15:41;;;;;;;4.65;2.30;;;;;;;16.46;81.85;100139.28;4980425;28;20053;-48
2023/07/26 08:18:08;;;;;;;10.38;2.92;;;;;;;16.43;81.89;100140.09;4991729;28;20077;-45
2023/07/26 08:20:37;;;;;;;4.15;2.80;;;;;;;16.43;82.46;100140.88;4988233;28;20527;-47
2023/07/26 08:23:04;;;;;;;5.40;2.97;;;;;;;16.44;82.82;100142.47;4987068;28;20112;-46
2023/07/26 08:25:32;;;;;;;5.90;2.40;;;;;;;16.43;83.05;100140.88;4983398;28;20054;-49
2023/07/26 08:27:59;;;;;;;11.90;4.18;;;;;;;16.42;83.38;100138.47;4983935;28;20046;-47
2023/07/26 08:30:25;;;;;;;6.85;2.88;;;;;;;16.39;83.63;100123.31;4976584;28;20768;-46
2023/07/26 08:32:52;;;;;;;7.55;2.45;;;;;;;16.36;83.89;100126.13;4990697;28;20057;-47
2023/07/26 08:35:22;;;;;;;6.95;2.65;;;;;;;16.35;84.21;100127.31;4989356;28;20042;-46
2023/07/26 08:37:49;;;;;;;5.68;2.25;;;;;;;16.37;84.44;100134.09;4985549;28;20035;-45
2023/07/26 08:40:18;;;;;;;3.83;1.80;;;;;;;16.39;84.71;100123.31;4982656;28;20056;-44
2023/07/26 08:42:45;;;;;;;5.80;1.75;;;;;;;16.47;84.72;100124.09;4960984;28;20046;-45
2023/07/26 08:45:12;;;;;;;6.05;2.05;;;;;;;16.54;84.96;100112.16;4989502;28;20053;-46
2023/07/26 08:47:39;;;;;;;4.70;2.50;;;;;;;16.63;84.98;100101.38;4989704;28;20049;-44
2023/07/26 08:50:07;;;;;;;5.18;1.80;;;;;;;16.66;85.08;100104.16;4979322;28;20048;-46
2023/07/26 08:52:34;;;;;;;7.15;2.03;;;;;;;16.68;85.28;100100.97;4985876;28;20055;-49
2023/07/26 08:55:02;;;;;;;3.03;1.70;;;;;;;16.67;85.45;100100.19;4979809;28;20382;-46
2023/07/26 08:57:29;;;;;;;3.42;2.22;;;;;;;16.65;85.81;100099.00;4989410;28;20053;-45
2023/07/26 08:59:56;;;;;;;3.40;1.75;;;;;;;16.64;85.92;100097.38;4987874;28;20046;-44
2023/07/26 09:02:24;;;;;;;8.18;3.38;;;;;;;16.62;86.11;100080.22;4985731;28;20513;-44
2023/07/26 09:04:51;;;;;;;3.13;2.00;;;;;;;16.62;86.40;100078.22;4988281;28;20042;-44
2023/07/26 09:07:19;;;;;;;3.35;1.95;;;;;;;16.62;86.60;100074.63;4985975;28;20042;-46
2023/07/26 09:09:46;;;;;;;3.08;2.47;;;;;;;16.61;86.89;100067.44;4990062;28;20043;-48
2023/07/26 09:12:25;;;;;;;5.15;2.00;;;;;;;16.59;87.11;100064.25;4992909;28;20046;-49
2023/07/26 09:15:03;;;;;;;6.82;1.98;;;;;;;16.51;87.54;100062.63;4982750;28;20042;-48
2023/07/26 09:17:38;;;;;;;4.90;2.33;;;;;;;16.51;87.88;100063.44;4994479;28;20054;-44
2023/07/26 09:20:19;;;;;;;5.68;3.00;;;;;;;16.55;88.29;100055.09;4990426;28;20101;-45
2023/07/26 09:22:46;;;;;;;8.15;3.65;;;;;;;16.57;88.60;100045.09;4991991;28;20121;-46
2023/07/26 09:25:29;;;;;;;8.18;2.60;;;;;;;16.56;88.83;100051.09;4988503;28;20054;-46
2023/07/26 09:27:57;;;;;;;8.70;3.40;;;;;;;16.55;89.23;100046.72;4993327;28;20042;-45
2023/07/26 09:30:24;;;;;;;9.88;4.07;;;;;;;16.52;89.37;100045.47;5007084;28;20057;-46
2023/07/26 09:32:51;;;;;;;7.65;3.45;;;;;;;16.50;89.82;100044.25;4993172;28;20050;-46
2023/07/26 09:35:18;;;;;;;10.50;4.13;;;;;;;16.49;90.39;100043.50;4994103;28;20050;-45
2023/07/26 09:37:45;;;;;;;11.63;3.83;;;;;;;16.51;90.81;100037.50;4993900;28;20097;-46
2023/07/26 09:40:12;;;;;;;15.32;5.95;;;;;;;16.54;91.19;100033.94;4986250;28;20394;-49
2023/07/26 09:42:50;;;;;;;6.90;4.10;;;;;;;16.57;91.46;100033.13;4986767;28;20073;-45
2023/07/26 09:45:19;;;;;;;9.30;3.92;;;;;;;16.58;91.75;100026.31;4983749;28;20162;-45
2023/07/26 09:47:47;;;;;;;12.70;4.97;;;;;;;16.60;92.13;100021.16;4989042;28;20108;-47
2023/07/26 09:50:30;;;;;;;6.47;3.42;;;;;;;16.70;92.33;100021.13;4990999;28;20076;-48
2023/07/26 09:53:02;;;;;;;8.97;3.80;;;;;;;16.78;92.30;100024.69;4981175;28;20125;-45
2023/07/26 09:55:29;;;;;;;8.35;3.88;;;;;;;16.83;92.47;100013.06;4986833;28;20397;-49
2023/07/26 09:58:00;;;;;;;9.77;2.90;;;;;;;16.90;92.76;100007.44;4986326;28;20041;-48
2023/07/26 10:00:28;;;;;;;3.72;3.30;;;;;;;17.00;92.86;100003.81;4992729;28;20049;-45
2023/07/26 10:03:03;;;;;;;4.35;3.20;;;;;;;17.10;93.02;100005.78;4989034;28;20054;-46
2023/07/26 10:05:38;;;;;;;5.03;2.58;;;;;;;17.17;93.15;100000.13;4992387;28;20116;-45
2023/07/26 10:08:05;;;;;;;7.03;2.30;;;;;;;17.22;93.30;99990.50;4992956;28;20038;-48
2023/07/26 10:10:32;;;;;;;10.23;2.97;;;;;;;17.27;93.22;99998.47;4993941;28;20090;-46
2023/07/26 10:13:00;;;;;;;5.38;3.45;;;;;;;17.28;93.66;100003.69;4988793;28;20042;-45
2023/07/26 10:15:31;;;;;;;2.88;2.30;;;;;;;17.27;93.81;100002.06;4992960;28;20046;-47
2023/07/26 10:17:58;;;;;;;5.53;2.40;;;;;;;17.23;93.94;99992.13;4992161;28;20050;-47
2023/07/26 10:20:26;;;;;;;7.88;2.03;;;;;;;17.17;94.32;99991.75;4992496;28;20074;-45
2023/07/26 10:22:55;;;;;;;6.78;2.13;;;;;;;17.13;94.55;99987.38;4991328;28;20049;-46
2023/07/26 10:25:22;;;;;;;8.50;2.78;;;;;;;17.11;95.13;99979.38;4988114;28;20046;-49
2023/07/26 10:27:50;;;;;;;9.13;2.03;;;;;;;17.11;95.33;99979.38;4991925;28;20396;-47
2023/07/26 10:30:17;;;;;;;3.97;2.30;;;;;;;17.14;95.59;99984.16;4994332;28;20050;-45
2023/07/26 10:32:50;;;;;;;4.82;2.60;;;;;;;17.19;95.64;99978.16;4993596;28;20452;-48
2023/07/26 10:35:29;;;;;;;5.85;2.25;;;;;;;17.20;95.61;99971.34;4993697;28;20053;-48
2023/07/26 10:37:58;;;;;;;5.88;2.10;;;;;;;17.18;95.89;99973.78;4993824;28;20096;-47
2023/07/26 10:40:43;;;;;;;4.70;2.80;;;;;;;17.16;95.89;99964.97;4992505;28;20057;-51
2023/07/26 10:43:20;;;;;;;3.25;1.70;;;;;;;17.16;96.21;99956.56;4989032;28;20047;-47
2023/07/26 10:45:49;;;;;;;3.72;1.70;;;;;;;17.16;96.51;99950.19;4992718;28;20056;-45
2023/07/26 10:48:36;;;;;;;1.65;1.33;;;;;;;17.13;96.49;99943.41;4993485;28;20096;-47
2023/07/26 10:51:32;;;;;;;3.10;1.67;;;;;;;17.09;96.49;99936.25;4993890;28;20451;-45
2023/07/26 10:54:04;;;;;;;1.88;1.42;;;;;;;17.02;96.77;99934.31;4993777;28;20062;-46
2023/07/26 10:56:32;;;;;;;3.15;1.83;;;;;;;16.98;97.14;99919.53;4992706;28;20061;-45
2023/07/26 10:59:02;;;;;;;3.92;1.65;;;;;;;16.98;97.59;99925.94;4993165;28;20496;-46
2023/07/26 11:01:40;;;;;;;7.70;2.63;;;;;;;16.99;97.72;99912.75;4975409;28;20055;-47
2023/07/26 11:04:12;;;;;;;5.38;2.10;;;;;;;17.02;97.86;99909.13;4992162;28;20133;-47
2023/07/26 11:06:56;;;;;;;7.45;2.10;;;;;;;17.08;97.95;99896.28;4993230;28;20054;-46
2023/07/26 11:09:30;;;;;;;4.82;2.28;;;;;;;17.13;98.19;99897.88;4993200;28;20045;-48
2023/07/26 11:12:13;;;;;;;5.30;1.92;;;;;;;17.21;98.22;99888.25;4992978;28;20070;-47
2023/07/26 11:14:41;;;;;;;9.20;2.22;;;;;;;17.27;98.17;99881.78;4989890;28;20047;-47
2023/07/26 11:17:20;;;;;;;6.35;2.35;;;;;;;17.33;97.97;99879.34;4993089;28;20046;-47
2023/07/26 11:19:48;;;;;;;4.88;1.98;;;;;;;17.38;98.25;99874.09;4992345;28;20460;-48
2023/07/26 11:22:18;;;;;;;4.88;2.05;;;;;;;17.41;98.33;99876.09;4992926;28;20053;-46
2023/07/26 11:24:46;;;;;;;2.70;1.63;;;;;;;17.40;98.36;99877.28;4992960;28;20075;-45
2023/07/26 11:27:13;;;;;;;2.80;0.95;;;;;;;17.33;98.46;99866.16;4993169;28;20104;-46
2023/07/26 11:29:40;;;;;;;1.65;1.15;;;;;;;17.30;98.75;99866.97;4991364;28;20105;-46